Terminal Aerodrome Forecast
Issued by NWS

Home | Current Version | Previous Version | Text Only | Print | Product List | Glossary On
Versions: 1 2 3 4 5 6 7 8 9 10 11 12 13 14 15 16
000
FTUS41 KBTV 170500
TAFSLK
TAF
KSLK 170535Z 1706/1806 00000KT 1/4SM FG VV001
     FM171200 00000KT P6SM FEW250
     FM171600 23005KT P6SM BKN080=

USA.gov is the U.S. government's official web portal to all federal, state and local government web resources and services.